createdAt,value
2023-01-29T00:02:15.973Z,77.12
2023-01-29T00:04:44.787Z,77.03
2023-01-29T00:07:14.119Z,77.26
2023-01-29T00:09:43.923Z,77.45
2023-01-29T00:12:12.662Z,77.27
2023-01-29T00:14:41.166Z,77.55
2023-01-29T00:17:10.447Z,77.70
2023-01-29T00:19:39.168Z,77.78
2023-01-29T00:22:09.220Z,77.35
2023-01-29T00:24:37.937Z,76.88
2023-01-29T00:27:06.626Z,77.15
2023-01-29T00:29:35.415Z,77.57
2023-01-29T00:32:04.339Z,77.91
2023-01-29T00:34:33.213Z,77.84
2023-01-29T00:37:09.161Z,77.58
2023-01-29T00:39:47.893Z,77.30
2023-01-29T00:42:35.831Z,76.57
2023-01-29T00:45:06.824Z,76.37
2023-01-29T00:47:35.528Z,76.85
2023-01-29T00:50:13.680Z,76.81
2023-01-29T00:52:43.247Z,77.07
2023-01-29T00:55:12.179Z,76.89
2023-01-29T00:57:40.896Z,76.94
2023-01-29T01:00:15.030Z,76.83
2023-01-29T01:03:03.052Z,76.87
2023-01-29T01:05:32.403Z,77.08
2023-01-29T01:08:01.193Z,77.41
2023-01-29T01:10:33.167Z,77.12
2023-01-29T01:13:05.399Z,77.06
2023-01-29T01:15:40.555Z,76.95
2023-01-29T01:18:09.524Z,77.39
2023-01-29T01:20:38.239Z,77.31
2023-01-29T01:23:07.336Z,77.23
2023-01-29T01:25:36.001Z,76.75
2023-01-29T01:28:05.179Z,76.54
2023-01-29T01:30:34.021Z,77.02
2023-01-29T01:33:02.759Z,77.06
2023-01-29T01:35:32.624Z,76.88
2023-01-29T01:38:01.271Z,76.88
2023-01-29T01:40:30.072Z,77.08
2023-01-29T01:43:01.454Z,76.83
2023-01-29T01:45:35.449Z,76.66
2023-01-29T01:48:30.660Z,76.45
2023-01-29T01:51:04.849Z,76.57
2023-01-29T01:53:39.841Z,76.97
2023-01-29T01:56:14.972Z,77.01
2023-01-29T01:58:55.795Z,76.88
2023-01-29T02:01:30.452Z,76.99
2023-01-29T02:04:28.423Z,77.16
2023-01-29T02:07:19.882Z,77.01
2023-01-29T02:10:01.143Z,77.13
2023-01-29T02:12:31.454Z,76.96
2023-01-29T02:15:00.987Z,77.21
2023-01-29T02:17:32.456Z,77.41
2023-01-29T02:20:07.051Z,76.79
2023-01-29T02:22:59.365Z,76.78
2023-01-29T02:25:55.757Z,76.97
2023-01-29T02:28:49.376Z,77.10
2023-01-29T02:31:46.144Z,77.27
2023-01-29T02:34:59.655Z,77.32
2023-01-29T02:38:37.141Z,77.03
2023-01-29T02:41:40.951Z,77.40
2023-01-29T02:44:41.936Z,77.55
2023-01-29T02:47:24.858Z,77.48
2023-01-29T02:50:11.685Z,77.31
2023-01-29T02:53:02.313Z,77.14
2023-01-29T02:55:59.715Z,76.53
2023-01-29T02:58:44.337Z,76.73
2023-01-29T03:01:33.357Z,76.03
2023-01-29T03:04:10.924Z,76.43
2023-01-29T03:07:10.848Z,76.61
2023-01-29T03:09:52.287Z,76.51
2023-01-29T03:12:34.384Z,76.17
2023-01-29T03:15:25.317Z,76.15
2023-01-29T03:18:51.121Z,76.85
2023-01-29T03:21:50.449Z,77.30
2023-01-29T03:25:14.398Z,77.14
2023-01-29T03:28:12.601Z,77.21
2023-01-29T03:31:19.433Z,77.09
2023-01-29T03:34:34.927Z,76.98
2023-01-29T03:37:14.161Z,76.93
2023-01-29T03:39:42.971Z,76.64
2023-01-29T03:42:38.779Z,76.56
2023-01-29T03:45:28.990Z,76.60
2023-01-29T03:48:46.508Z,76.30
2023-01-29T03:51:38.832Z,75.48
2023-01-29T03:54:26.585Z,75.63
2023-01-29T03:57:02.467Z,75.56
2023-01-29T03:59:44.849Z,75.33
2023-01-29T04:03:13.122Z,75.34
2023-01-29T04:05:53.467Z,74.98
2023-01-29T04:08:32.530Z,74.62
2023-01-29T04:11:11.157Z,74.32
2023-01-29T04:13:44.039Z,74.49
2023-01-29T04:16:29.720Z,74.53
2023-01-29T04:19:21.921Z,74.34
2023-01-29T04:21:59.029Z,74.16
2023-01-29T04:24:28.159Z,73.51
2023-01-29T04:27:14.979Z,73.91
2023-01-29T04:30:05.746Z,73.94
2023-01-29T04:33:11.472Z,73.52
2023-01-29T04:35:55.149Z,73.35
2023-01-29T04:39:20.281Z,73.46
2023-01-29T04:42:25.728Z,73.84
2023-01-29T04:45:45.387Z,74.07
2023-01-29T04:48:28.258Z,74.08
2023-01-29T04:51:31.099Z,74.22
2023-01-29T04:54:28.124Z,73.87
2023-01-29T04:57:42.075Z,73.10
2023-01-29T05:00:28.892Z,72.73
2023-01-29T05:02:59.385Z,71.83
2023-01-29T05:05:29.492Z,71.26
2023-01-29T05:07:59.971Z,70.79
2023-01-29T05:10:29.549Z,70.28
2023-01-29T05:13:06.111Z,70.37
2023-01-29T05:16:04.670Z,70.04
2023-01-29T05:18:34.128Z,69.96
2023-01-29T05:21:08.037Z,69.77
2023-01-29T05:23:37.467Z,70.10
2023-01-29T05:26:06.438Z,69.56
2023-01-29T05:28:34.997Z,69.43
2023-01-29T05:31:03.825Z,69.81
2023-01-29T05:33:32.713Z,69.99
2023-01-29T05:36:01.263Z,70.21
2023-01-29T05:38:29.915Z,70.38
2023-01-29T05:40:59.762Z,70.77
2023-01-29T05:43:28.549Z,70.82
2023-01-29T05:46:00.281Z,70.86
2023-01-29T05:48:29.999Z,70.81
2023-01-29T05:51:05.359Z,70.46
2023-01-29T05:53:34.303Z,70.39
2023-01-29T05:56:05.027Z,70.65
2023-01-29T05:58:34.582Z,71.15
2023-01-29T06:01:19.710Z,71.22
2023-01-29T06:03:48.670Z,71.33
2023-01-29T06:06:18.050Z,71.66
2023-01-29T06:08:46.879Z,71.80
2023-01-29T06:11:16.628Z,72.06
2023-01-29T06:13:46.109Z,72.29
2023-01-29T06:16:15.468Z,72.81
2023-01-29T06:18:44.218Z,73.08
2023-01-29T06:21:14.297Z,73.37
2023-01-29T06:23:43.191Z,73.52
2023-01-29T06:26:15.439Z,73.56
2023-01-29T06:28:46.174Z,74.15
2023-01-29T06:31:35.321Z,74.62
2023-01-29T06:34:05.015Z,74.80
2023-01-29T06:36:33.868Z,74.99
2023-01-29T06:39:02.801Z,75.05
2023-01-29T06:41:31.612Z,75.09
2023-01-29T06:44:02.431Z,75.08
2023-01-29T06:46:31.787Z,75.34
2023-01-29T06:49:01.236Z,75.53
2023-01-29T06:51:30.072Z,75.80
2023-01-29T06:53:59.063Z,76.08
2023-01-29T06:56:28.200Z,76.22
2023-01-29T06:58:57.681Z,76.17
2023-01-29T07:01:35.697Z,76.51
2023-01-29T07:04:05.708Z,76.99
2023-01-29T07:06:34.495Z,77.19
2023-01-29T07:09:05.360Z,77.28
2023-01-29T07:11:38.148Z,76.87
2023-01-29T07:14:08.053Z,76.82
2023-01-29T07:16:36.767Z,76.43
2023-01-29T07:19:05.635Z,75.85
2023-01-29T07:21:34.292Z,75.50
2023-01-29T07:24:03.363Z,75.41
2023-01-29T07:26:32.146Z,75.18
2023-01-29T07:29:01.121Z,74.96
2023-01-29T07:31:30.002Z,74.85
2023-01-29T07:33:58.791Z,75.12
2023-01-29T07:36:28.527Z,74.96
2023-01-29T07:38:57.249Z,74.45
2023-01-29T07:41:25.917Z,74.02
2023-01-29T07:43:55.247Z,73.97
2023-01-29T07:46:24.089Z,73.73
2023-01-29T07:48:52.757Z,73.76
2023-01-29T07:51:21.693Z,73.56
2023-01-29T07:53:50.281Z,73.29
2023-01-29T07:56:18.967Z,72.73
2023-01-29T07:58:47.525Z,72.46
2023-01-29T08:01:17.008Z,72.17
2023-01-29T08:03:45.816Z,72.28
2023-01-29T08:06:14.742Z,71.72
2023-01-29T08:08:43.439Z,71.85
2023-01-29T08:11:12.234Z,70.98
2023-01-29T08:13:41.007Z,70.60
2023-01-29T08:16:09.805Z,71.20
2023-01-29T08:18:38.918Z,71.49
2023-01-29T08:21:07.518Z,71.65
2023-01-29T08:23:36.169Z,71.28
2023-01-29T08:26:05.090Z,70.90
2023-01-29T08:28:33.775Z,70.36
2023-01-29T08:31:02.660Z,70.26
2023-01-29T08:33:39.116Z,70.61
2023-01-29T08:36:09.997Z,70.53
2023-01-29T08:38:42.251Z,70.27
2023-01-29T08:41:11.155Z,70.57
2023-01-29T08:43:41.144Z,70.70
2023-01-29T08:46:11.251Z,71.10
2023-01-29T08:48:40.664Z,71.28
2023-01-29T08:51:10.633Z,70.95
2023-01-29T08:53:39.094Z,71.02
2023-01-29T08:56:08.493Z,71.15
2023-01-29T08:58:37.292Z,70.54
2023-01-29T09:01:11.869Z,70.75
2023-01-29T09:03:47.183Z,70.55
2023-01-29T09:06:15.817Z,70.43
2023-01-29T09:08:44.568Z,70.54
2023-01-29T09:11:13.546Z,70.54
2023-01-29T09:13:42.187Z,71.20
2023-01-29T09:16:11.448Z,71.68
2023-01-29T09:18:40.425Z,71.53
2023-01-29T09:21:09.019Z,71.50
2023-01-29T09:23:38.245Z,71.38
2023-01-29T09:26:08.877Z,71.54
2023-01-29T09:28:37.851Z,71.17
2023-01-29T09:31:06.658Z,70.82
2023-01-29T09:33:35.913Z,70.85
2023-01-29T09:36:05.412Z,70.90
2023-01-29T09:38:34.270Z,71.10
2023-01-29T09:41:53.776Z,71.18
2023-01-29T09:45:06.005Z,71.02
2023-01-29T09:47:36.847Z,71.60
2023-01-29T09:50:19.093Z,71.88
2023-01-29T09:53:11.086Z,71.15
2023-01-29T09:56:05.099Z,70.45
2023-01-29T09:58:37.566Z,69.97
2023-01-29T10:01:19.223Z,70.70
2023-01-29T10:04:13.284Z,70.58
2023-01-29T10:07:00.389Z,70.38
2023-01-29T10:10:14.095Z,70.52
2023-01-29T10:13:07.593Z,70.43
2023-01-29T10:16:19.099Z,68.71
2023-01-29T10:19:41.396Z,68.62
2023-01-29T10:23:02.113Z,68.56
2023-01-29T10:25:36.398Z,67.81
2023-01-29T10:28:23.629Z,68.00
2023-01-29T10:31:07.104Z,67.74
2023-01-29T10:33:49.421Z,66.72
2023-01-29T10:36:46.743Z,66.86
2023-01-29T10:39:24.841Z,66.69
2023-01-29T10:42:24.321Z,66.62
2023-01-29T10:46:11.962Z,66.51
2023-01-29T10:49:41.036Z,67.24
2023-01-29T10:52:46.999Z,67.23
2023-01-29T10:55:41.310Z,67.04
2023-01-29T10:58:55.227Z,67.66
2023-01-29T11:01:24.301Z,67.76
2023-01-29T11:04:14.889Z,67.32
2023-01-29T11:06:51.879Z,67.19
2023-01-29T11:10:15.155Z,67.07
2023-01-29T11:12:45.049Z,66.70
2023-01-29T11:15:28.137Z,67.52
2023-01-29T11:18:15.931Z,67.28
2023-01-29T11:20:46.505Z,66.76
2023-01-29T11:23:35.586Z,67.47
2023-01-29T11:26:06.090Z,67.78
2023-01-29T11:28:44.779Z,67.76
2023-01-29T11:31:38.499Z,67.04
2023-01-29T11:34:30.769Z,67.92
2023-01-29T11:37:16.330Z,69.13
2023-01-29T11:39:49.034Z,69.61
2023-01-29T11:42:23.814Z,69.83
2023-01-29T11:44:52.664Z,69.53
2023-01-29T11:47:28.111Z,69.36
2023-01-29T11:50:05.126Z,69.66
2023-01-29T11:52:42.322Z,70.08
2023-01-29T11:55:58.953Z,69.54
2023-01-29T11:59:10.916Z,69.42
2023-01-29T12:02:06.700Z,69.72
2023-01-29T12:05:38.222Z,69.90
2023-01-29T12:08:44.614Z,70.59
2023-01-29T12:11:47.700Z,70.40
2023-01-29T12:15:05.249Z,70.92
2023-01-29T12:18:24.325Z,71.83
2023-01-29T12:21:48.491Z,72.13
2023-01-29T12:25:23.946Z,71.93
2023-01-29T12:28:29.952Z,72.35
2023-01-29T12:31:27.332Z,72.21
2023-01-29T12:34:32.301Z,72.56
2023-01-29T12:37:58.248Z,72.62
2023-01-29T12:41:01.689Z,73.02
2023-01-29T12:44:34.776Z,73.14
2023-01-29T12:47:08.671Z,73.54
2023-01-29T12:49:47.204Z,73.65
2023-01-29T12:52:27.275Z,74.04
2023-01-29T12:55:06.648Z,74.27
2023-01-29T12:57:50.095Z,74.40
2023-01-29T13:00:25.768Z,74.93
2023-01-29T13:03:22.124Z,76.01
2023-01-29T13:06:00.591Z,76.67
2023-01-29T13:08:55.505Z,77.07
2023-01-29T13:12:13.239Z,78.01
2023-01-29T13:15:07.129Z,78.83
2023-01-29T13:17:50.931Z,79.06
2023-01-29T13:20:32.548Z,79.19
2023-01-29T13:23:38.873Z,79.54
2023-01-29T13:26:26.777Z,79.78
2023-01-29T13:28:56.070Z,79.85
2023-01-29T13:31:41.773Z,79.81
2023-01-29T13:34:26.045Z,79.31
2023-01-29T13:36:59.579Z,79.07
2023-01-29T13:39:48.084Z,79.09
2023-01-29T13:42:50.513Z,79.14
2023-01-29T13:45:42.866Z,78.91
2023-01-29T13:48:29.310Z,79.00
2023-01-29T13:51:03.100Z,78.87
2023-01-29T13:53:42.316Z,79.10
2023-01-29T13:56:33.345Z,79.19
2023-01-29T13:59:06.628Z,79.76
2023-01-29T14:01:48.465Z,79.84
2023-01-29T14:04:32.970Z,79.85
2023-01-29T14:07:49.200Z,80.11
2023-01-29T14:10:28.969Z,80.52
2023-01-29T14:13:22.174Z,80.55
2023-01-29T14:16:01.432Z,80.94
2023-01-29T14:18:35.853Z,81.14
2023-01-29T14:21:08.150Z,81.23
2023-01-29T14:23:47.126Z,81.32
2023-01-29T14:26:35.102Z,81.87
2023-01-29T14:29:14.477Z,82.41
2023-01-29T14:32:07.247Z,82.19
2023-01-29T14:34:51.393Z,82.19
2023-01-29T14:37:46.316Z,83.05
2023-01-29T14:40:30.058Z,83.39
2023-01-29T14:43:10.082Z,83.46
2023-01-29T14:45:45.187Z,83.90
2023-01-29T14:48:40.652Z,83.92
2023-01-29T14:51:15.690Z,83.95
2023-01-29T14:53:56.665Z,83.85
2023-01-29T14:57:07.816Z,84.05
2023-01-29T14:59:57.106Z,84.18
2023-01-29T15:02:41.971Z,84.43
2023-01-29T15:05:25.671Z,84.41
2023-01-29T15:08:21.042Z,84.56
2023-01-29T15:11:15.065Z,84.58
2023-01-29T15:14:24.311Z,84.40
2023-01-29T15:17:10.717Z,84.69
2023-01-29T15:19:51.231Z,84.93
2023-01-29T15:22:33.067Z,84.81
2023-01-29T15:25:14.527Z,85.29
2023-01-29T15:27:46.433Z,85.17
2023-01-29T15:30:32.898Z,85.10
2023-01-29T15:33:03.986Z,85.62
2023-01-29T15:35:43.148Z,85.45
2023-01-29T15:38:22.268Z,85.69
2023-01-29T15:41:17.444Z,85.58
2023-01-29T15:44:17.398Z,85.69
2023-01-29T15:47:01.558Z,85.74
2023-01-29T15:49:33.183Z,85.90
2023-01-29T15:52:20.606Z,85.86
2023-01-29T15:54:50.284Z,86.33
2023-01-29T15:57:26.776Z,86.14
2023-01-29T16:00:09.173Z,85.95
2023-01-29T16:02:47.150Z,86.53
2023-01-29T16:05:27.802Z,86.35
2023-01-29T16:08:01.827Z,86.27
2023-01-29T16:10:37.443Z,86.30
2023-01-29T16:13:17.274Z,86.55
2023-01-29T16:16:25.733Z,86.42
2023-01-29T16:19:01.239Z,86.37
2023-01-29T16:25:22.599Z,86.48
2023-01-29T16:27:52.710Z,86.67
2023-01-29T16:30:28.666Z,86.49
2023-01-29T16:33:06.262Z,86.44
2023-01-29T16:35:37.538Z,86.45
2023-01-29T16:38:37.736Z,86.63
2023-01-29T16:41:38.819Z,86.84
2023-01-29T16:44:17.497Z,87.14
2023-01-29T16:46:49.571Z,87.39
2023-01-29T16:49:31.469Z,87.15
2023-01-29T16:52:39.469Z,87.10
2023-01-29T16:55:23.238Z,87.21
2023-01-29T16:57:57.056Z,87.37
2023-01-29T17:00:32.746Z,87.50
2023-01-29T17:03:07.733Z,87.36
2023-01-29T17:05:39.357Z,87.45
2023-01-29T17:08:19.020Z,87.61
2023-01-29T17:10:48.980Z,87.56
2023-01-29T17:13:35.533Z,87.80
2023-01-29T17:16:24.421Z,87.79
2023-01-29T17:18:55.191Z,87.71
2023-01-29T17:21:24.915Z,87.81
2023-01-29T17:23:55.530Z,87.82
2023-01-29T17:26:25.378Z,87.88
2023-01-29T17:28:55.208Z,87.71
2023-01-29T17:31:24.724Z,87.79
2023-01-29T17:33:57.207Z,87.87
2023-01-29T17:37:29.976Z,87.84
2023-01-29T17:40:05.407Z,88.18
2023-01-29T17:42:40.449Z,88.04
2023-01-29T17:45:11.785Z,88.18
2023-01-29T17:47:41.118Z,88.16
2023-01-29T17:50:30.860Z,88.04
2023-01-29T17:53:05.258Z,88.01
2023-01-29T17:55:36.119Z,88.00
2023-01-29T17:58:05.555Z,88.07
2023-01-29T18:00:35.623Z,87.79
2023-01-29T18:03:04.878Z,87.73
2023-01-29T18:05:33.876Z,87.40
2023-01-29T18:08:06.011Z,87.34
2023-01-29T18:10:35.255Z,87.17
2023-01-29T18:13:04.979Z,87.15
2023-01-29T18:15:35.051Z,87.07
2023-01-29T18:18:07.055Z,87.39
2023-01-29T18:20:40.777Z,87.25
2023-01-29T18:23:12.484Z,87.30
2023-01-29T18:25:43.660Z,87.03
2023-01-29T18:28:18.046Z,86.61
2023-01-29T18:30:48.798Z,86.36
2023-01-29T18:33:27.101Z,86.33
2023-01-29T18:36:07.820Z,85.82
2023-01-29T18:38:37.241Z,85.90
2023-01-29T18:41:11.750Z,85.67
2023-01-29T18:43:45.876Z,85.78
2023-01-29T18:46:23.222Z,85.54
2023-01-29T18:48:57.520Z,85.40
2023-01-29T18:51:29.857Z,85.53
2023-01-29T18:57:13.476Z,84.50
2023-01-29T18:59:49.337Z,83.48
2023-01-29T19:02:25.347Z,83.31
2023-01-29T19:04:54.814Z,82.91
2023-01-29T19:07:24.387Z,82.03
2023-01-29T19:09:55.232Z,81.32
2023-01-29T19:12:26.615Z,81.46
2023-01-29T19:14:58.920Z,81.09
2023-01-29T19:17:31.275Z,81.30
2023-01-29T19:20:10.348Z,80.61
2023-01-29T19:22:41.264Z,80.24
2023-01-29T19:25:11.569Z,80.21
2023-01-29T19:27:41.893Z,80.12
2023-01-29T19:30:13.160Z,80.59
2023-01-29T19:32:54.781Z,78.92
2023-01-29T19:35:31.279Z,79.89
2023-01-29T19:38:07.475Z,79.93
2023-01-29T19:40:41.707Z,79.47
2023-01-29T19:43:19.336Z,79.20
2023-01-29T19:45:51.844Z,79.63
2023-01-29T19:48:25.414Z,80.28
2023-01-29T19:51:04.061Z,79.63
2023-01-29T19:53:44.632Z,80.10
2023-01-29T19:56:26.227Z,80.02
2023-01-29T19:59:18.058Z,80.48
2023-01-29T20:01:53.377Z,79.41
2023-01-29T20:04:23.587Z,79.15
2023-01-29T20:06:53.399Z,78.95
2023-01-29T20:09:23.469Z,78.59
2023-01-29T20:11:52.275Z,77.89
2023-01-29T20:14:24.104Z,78.57
2023-01-29T20:16:52.778Z,79.14
2023-01-29T20:19:21.427Z,79.39
2023-01-29T20:21:50.056Z,77.72
2023-01-29T20:24:18.742Z,77.79
2023-01-29T20:26:47.460Z,77.46
2023-01-29T20:29:16.037Z,78.11
2023-01-29T20:31:44.688Z,77.72
2023-01-29T20:34:13.356Z,77.62
2023-01-29T20:36:42.029Z,78.33
2023-01-29T20:39:10.745Z,78.62
2023-01-29T20:41:41.755Z,78.00
2023-01-29T20:44:10.652Z,78.62
2023-01-29T20:46:39.409Z,79.45
2023-01-29T20:49:09.070Z,79.82
2023-01-29T20:51:37.940Z,77.90
2023-01-29T20:54:06.612Z,77.72
2023-01-29T20:56:38.460Z,78.78
2023-01-29T20:59:11.471Z,78.84
2023-01-29T21:01:40.117Z,78.88
2023-01-29T21:04:08.966Z,78.37
2023-01-29T21:06:38.169Z,78.49
2023-01-29T21:09:07.657Z,76.54
2023-01-29T21:11:36.438Z,76.60
2023-01-29T21:14:05.239Z,77.31
2023-01-29T21:16:33.996Z,76.54
2023-01-29T21:19:03.556Z,78.82
2023-01-29T21:21:32.383Z,77.63
2023-01-29T21:24:01.193Z,77.90
2023-01-29T21:26:29.799Z,78.99
2023-01-29T21:28:59.649Z,77.57
2023-01-29T21:31:28.522Z,78.24
2023-01-29T21:33:57.383Z,78.32
2023-01-29T21:36:26.073Z,78.24
2023-01-29T21:38:54.774Z,78.58
2023-01-29T21:41:42.731Z,78.49
2023-01-29T21:44:12.707Z,77.33
2023-01-29T21:46:41.531Z,76.88
2023-01-29T21:49:10.285Z,78.48
2023-01-29T21:53:47.472Z,76.19
2023-01-29T21:56:19.792Z,77.34
2023-01-29T21:58:50.239Z,78.03
2023-01-29T22:01:37.803Z,78.76
2023-01-29T22:04:09.892Z,77.83
2023-01-29T22:06:38.475Z,77.66
2023-01-29T22:09:07.091Z,77.58
2023-01-29T22:11:35.956Z,78.42
2023-01-29T22:14:04.638Z,78.23
2023-01-29T22:16:33.677Z,77.27
2023-01-29T22:19:02.551Z,77.82
2023-01-29T22:21:31.130Z,77.94
2023-01-29T22:23:59.723Z,77.15
2023-01-29T22:26:29.766Z,78.16
2023-01-29T22:28:58.525Z,78.67
2023-01-29T22:31:27.308Z,78.43
2023-01-29T22:33:55.973Z,77.16
2023-01-29T22:36:24.746Z,76.68
2023-01-29T22:38:53.497Z,77.75
2023-01-29T22:41:22.151Z,76.92
2023-01-29T22:43:50.727Z,75.93
2023-01-29T22:46:19.369Z,75.98
2023-01-29T22:48:47.972Z,77.10
2023-01-29T22:51:16.713Z,76.82
2023-01-29T22:53:57.133Z,78.85
2023-01-29T22:56:28.360Z,78.92
2023-01-29T22:58:59.950Z,76.42
2023-01-29T23:01:31.592Z,77.46
2023-01-29T23:04:00.445Z,78.37
2023-01-29T23:06:29.044Z,77.72
2023-01-29T23:08:57.793Z,77.79
2023-01-29T23:11:26.498Z,77.32
2023-01-29T23:13:55.512Z,77.66
2023-01-29T23:16:28.054Z,77.34
2023-01-29T23:18:57.417Z,77.06
2023-01-29T23:21:27.384Z,77.74
2023-01-29T23:23:58.463Z,78.06
2023-01-29T23:26:48.045Z,77.51
2023-01-29T23:29:16.736Z,77.59
2023-01-29T23:31:45.490Z,77.73
2023-01-29T23:34:14.495Z,77.20
2023-01-29T23:36:43.625Z,77.11
2023-01-29T23:39:12.275Z,77.46
2023-01-29T23:41:40.937Z,77.67
2023-01-29T23:44:09.856Z,79.00
2023-01-29T23:46:38.751Z,78.74
2023-01-29T23:49:07.576Z,77.88
2023-01-29T23:51:36.233Z,78.28
2023-01-29T23:54:05.608Z,77.81
2023-01-29T23:56:34.503Z,77.94
2023-01-29T23:59:03.170Z,77.64
